sensor_id;sensor_type;location;lat;lon;timestamp;pressure;altitude;pressure_sealevel;temperature;humidity
9855;BME280;4966;48.112;9.282;2023-04-26T00:00:42;94651.03;;;7.60;75.87
9855;BME280;4966;48.112;9.282;2023-04-26T00:03:10;94656.78;;;7.67;75.61
9855;BME280;4966;48.112;9.282;2023-04-26T00:05:37;94647.22;;;7.61;75.81
9855;BME280;4966;48.112;9.282;2023-04-26T00:08:06;94661.88;;;7.60;75.50
9855;BME280;4966;48.112;9.282;2023-04-26T00:10:32;94661.22;;;7.63;75.17
9855;BME280;4966;48.112;9.282;2023-04-26T00:12:58;94661.38;;;7.75;75.25
9855;BME280;4966;48.112;9.282;2023-04-26T00:15:24;94654.88;;;7.50;76.62
9855;BME280;4966;48.112;9.282;2023-04-26T00:17:49;94650.41;;;7.45;75.67
9855;BME280;4966;48.112;9.282;2023-04-26T00:20:16;94652.31;;;7.54;74.99
9855;BME280;4966;48.112;9.282;2023-04-26T00:22:42;94647.84;;;7.66;75.53
9855;BME280;4966;48.112;9.282;2023-04-26T00:25:08;94654.06;;;7.76;75.32
9855;BME280;4966;48.112;9.282;2023-04-26T00:27:34;94655.31;;;7.87;75.15
9855;BME280;4966;48.112;9.282;2023-04-26T00:30:02;94655.66;;;7.68;75.87
9855;BME280;4966;48.112;9.282;2023-04-26T00:32:31;94660.56;;;7.66;75.92
9855;BME280;4966;48.112;9.282;2023-04-26T00:35:01;94658.53;;;7.72;75.70
9855;BME280;4966;48.112;9.282;2023-04-26T00:37:27;94661.06;;;7.33;75.68
9855;BME280;4966;48.112;9.282;2023-04-26T00:39:53;94660.59;;;7.49;75.89
9855;BME280;4966;48.112;9.282;2023-04-26T00:42:19;94657.72;;;7.54;75.85
9855;BME280;4966;48.112;9.282;2023-04-26T00:44:44;94669.03;;;7.56;75.94
9855;BME280;4966;48.112;9.282;2023-04-26T00:47:10;94671.44;;;7.57;74.84
9855;BME280;4966;48.112;9.282;2023-04-26T00:49:36;94668.19;;;7.20;74.36
9855;BME280;4966;48.112;9.282;2023-04-26T00:52:05;94667.09;;;7.56;74.92
9855;BME280;4966;48.112;9.282;2023-04-26T00:54:32;94672.84;;;7.63;74.84
9855;BME280;4966;48.112;9.282;2023-04-26T00:56:58;94673.81;;;7.76;74.50
9855;BME280;4966;48.112;9.282;2023-04-26T00:59:28;94672.72;;;7.69;74.97
9855;BME280;4966;48.112;9.282;2023-04-26T01:01:54;94663.28;;;7.75;74.50
9855;BME280;4966;48.112;9.282;2023-04-26T01:04:23;94660.44;;;7.54;73.87
9855;BME280;4966;48.112;9.282;2023-04-26T01:06:57;94663.75;;;7.68;73.26
9855;BME280;4966;48.112;9.282;2023-04-26T01:09:28;94657.56;;;7.59;72.45
9855;BME280;4966;48.112;9.282;2023-04-26T01:11:59;94659.50;;;7.50;73.10
9855;BME280;4966;48.112;9.282;2023-04-26T01:14:25;94652.66;;;7.52;72.49
9855;BME280;4966;48.112;9.282;2023-04-26T01:16:51;94659.47;;;7.58;72.79
9855;BME280;4966;48.112;9.282;2023-04-26T01:19:20;94660.59;;;7.57;73.22
9855;BME280;4966;48.112;9.282;2023-04-26T01:21:50;94666.00;;;7.49;73.45
9855;BME280;4966;48.112;9.282;2023-04-26T01:24:16;94663.16;;;7.45;74.29
9855;BME280;4966;48.112;9.282;2023-04-26T01:26:45;94666.63;;;7.37;73.92
9855;BME280;4966;48.112;9.282;2023-04-26T01:29:18;94671.75;;;7.38;74.05
9855;BME280;4966;48.112;9.282;2023-04-26T01:31:45;94663.13;;;7.36;73.79
9855;BME280;4966;48.112;9.282;2023-04-26T01:34:12;94658.84;;;7.53;73.35
9855;BME280;4966;48.112;9.282;2023-04-26T01:36:38;94667.75;;;7.44;74.49
9855;BME280;4966;48.112;9.282;2023-04-26T01:39:04;94669.03;;;7.47;75.73
9855;BME280;4966;48.112;9.282;2023-04-26T01:41:33;94666.50;;;7.59;75.32
9855;BME280;4966;48.112;9.282;2023-04-26T01:44:01;94668.69;;;7.66;75.42
9855;BME280;4966;48.112;9.282;2023-04-26T01:46:27;94662.19;;;7.41;75.51
9855;BME280;4966;48.112;9.282;2023-04-26T01:48:53;94670.78;;;7.34;76.48
9855;BME280;4966;48.112;9.282;2023-04-26T01:51:22;94662.34;;;7.53;75.95
9855;BME280;4966;48.112;9.282;2023-04-26T01:53:50;94669.50;;;7.58;75.55
9855;BME280;4966;48.112;9.282;2023-04-26T01:56:16;94658.03;;;7.43;75.13
9855;BME280;4966;48.112;9.282;2023-04-26T01:58:45;94662.16;;;7.32;73.78
9855;BME280;4966;48.112;9.282;2023-04-26T02:01:11;94667.91;;;7.39;73.06
9855;BME280;4966;48.112;9.282;2023-04-26T02:03:39;94662.34;;;7.44;73.21
9855;BME280;4966;48.112;9.282;2023-04-26T02:06:06;94652.66;;;7.52;73.50
9855;BME280;4966;48.112;9.282;2023-04-26T02:08:34;94658.66;;;7.75;73.29
9855;BME280;4966;48.112;9.282;2023-04-26T02:11:00;94656.09;;;7.87;74.02
9855;BME280;4966;48.112;9.282;2023-04-26T02:13:27;94656.91;;;7.79;74.79
9855;BME280;4966;48.112;9.282;2023-04-26T02:15:55;94646.22;;;7.92;75.44
9855;BME280;4966;48.112;9.282;2023-04-26T02:18:21;94638.09;;;8.00;75.24
9855;BME280;4966;48.112;9.282;2023-04-26T02:20:46;94633.97;;;7.85;76.01
9855;BME280;4966;48.112;9.282;2023-04-26T02:23:12;94637.97;;;7.88;74.98
9855;BME280;4966;48.112;9.282;2023-04-26T02:25:47;94628.25;;;7.70;74.22
9855;BME280;4966;48.112;9.282;2023-04-26T02:28:17;94626.19;;;7.66;74.18
9855;BME280;4966;48.112;9.282;2023-04-26T02:30:43;94638.59;;;7.76;74.91
9855;BME280;4966;48.112;9.282;2023-04-26T02:33:09;94633.69;;;7.52;74.39
9855;BME280;4966;48.112;9.282;2023-04-26T02:35:38;94633.69;;;7.43;74.90
9855;BME280;4966;48.112;9.282;2023-04-26T02:38:04;94643.03;;;6.85;77.25
9855;BME280;4966;48.112;9.282;2023-04-26T02:40:30;94648.16;;;7.13;76.36
9855;BME280;4966;48.112;9.282;2023-04-26T02:42:56;94635.75;;;7.12;76.21
9855;BME280;4966;48.112;9.282;2023-04-26T02:45:24;94641.50;;;7.19;76.03
9855;BME280;4966;48.112;9.282;2023-04-26T02:47:50;94638.94;;;7.22;76.31
9855;BME280;4966;48.112;9.282;2023-04-26T02:50:19;94641.03;;;7.26;76.35
9855;BME280;4966;48.112;9.282;2023-04-26T02:52:45;94644.34;;;7.22;76.51
9855;BME280;4966;48.112;9.282;2023-04-26T02:55:11;94639.25;;;7.30;76.71
9855;BME280;4966;48.112;9.282;2023-04-26T02:57:37;94639.72;;;7.23;76.64
9855;BME280;4966;48.112;9.282;2023-04-26T03:00:03;94644.19;;;7.28;76.89
9855;BME280;4966;48.112;9.282;2023-04-26T03:02:29;94639.91;;;7.35;77.13
9855;BME280;4966;48.112;9.282;2023-04-26T03:04:58;94644.34;;;7.22;77.68
9855;BME280;4966;48.112;9.282;2023-04-26T03:07:25;94648.34;;;7.34;77.53
9855;BME280;4966;48.112;9.282;2023-04-26T03:09:51;94643.06;;;7.37;77.01
9855;BME280;4966;48.112;9.282;2023-04-26T03:12:17;94637.97;;;7.44;76.52
9855;BME280;4966;48.112;9.282;2023-04-26T03:14:52;94647.53;;;7.42;75.95
9855;BME280;4966;48.112;9.282;2023-04-26T03:17:17;94634.16;;;7.45;74.75
9855;BME280;4966;48.112;9.282;2023-04-26T03:19:46;94636.06;;;7.54;74.18
9855;BME280;4966;48.112;9.282;2023-04-26T03:22:11;94640.84;;;7.48;75.27
9855;BME280;4966;48.112;9.282;2023-04-26T03:24:41;94635.59;;;7.34;76.88
9855;BME280;4966;48.112;9.282;2023-04-26T03:27:07;94634.94;;;7.20;77.73
9855;BME280;4966;48.112;9.282;2023-04-26T03:29:33;94642.75;;;7.21;77.85
9855;BME280;4966;48.112;9.282;2023-04-26T03:32:01;94645.63;;;7.25;77.75
9855;BME280;4966;48.112;9.282;2023-04-26T03:34:27;94641.78;;;7.09;78.23
9855;BME280;4966;48.112;9.282;2023-04-26T03:36:53;94646.91;;;7.19;77.88
9855;BME280;4966;48.112;9.282;2023-04-26T03:39:22;94650.25;;;7.33;77.33
9855;BME280;4966;48.112;9.282;2023-04-26T03:41:50;94647.53;;;7.42;76.96
9855;BME280;4966;48.112;9.282;2023-04-26T03:44:19;94639.72;;;7.32;76.52
9855;BME280;4966;48.112;9.282;2023-04-26T03:46:55;94641.97;;;7.38;76.26
9855;BME280;4966;48.112;9.282;2023-04-26T03:49:21;94637.50;;;7.34;76.07
9855;BME280;4966;48.112;9.282;2023-04-26T03:51:49;94645.47;;;7.39;75.87
9855;BME280;4966;48.112;9.282;2023-04-26T03:54:17;94640.84;;;7.48;75.51
9855;BME280;4966;48.112;9.282;2023-04-26T03:56:46;94633.84;;;7.47;76.13
9855;BME280;4966;48.112;9.282;2023-04-26T03:59:14;94645.16;;;7.58;76.64
9855;BME280;4966;48.112;9.282;2023-04-26T04:01:43;94636.25;;;7.40;76.90
9855;BME280;4966;48.112;9.282;2023-04-26T04:04:09;94637.19;;;7.53;74.75
9855;BME280;4966;48.112;9.282;2023-04-26T04:06:37;94634.31;;;7.32;75.58
9855;BME280;4966;48.112;9.282;2023-04-26T04:09:03;94635.25;;;7.01;77.57
9855;BME280;4966;48.112;9.282;2023-04-26T04:11:32;94639.72;;;7.14;77.40
9855;BME280;4966;48.112;9.282;2023-04-26T04:14:03;94639.91;;;7.35;77.17
9855;BME280;4966;48.112;9.282;2023-04-26T04:16:29;94632.72;;;7.39;76.33
9855;BME280;4966;48.112;9.282;2023-04-26T04:18:55;94626.53;;;7.21;76.18
9855;BME280;4966;48.112;9.282;2023-04-26T04:21:21;94627.47;;;6.99;77.66
9855;BME280;4966;48.112;9.282;2023-04-26T04:23:46;94630.47;;;6.98;78.15
9855;BME280;4966;48.112;9.282;2023-04-26T04:26:12;94629.03;;;6.83;79.34
9855;BME280;4966;48.112;9.282;2023-04-26T04:28:39;94636.75;;;6.58;80.71
9855;BME280;4966;48.112;9.282;2023-04-26T04:31:12;94624.69;;;6.65;80.04
9855;BME280;4966;48.112;9.282;2023-04-26T04:33:41;94633.53;;;6.48;81.17
9855;BME280;4966;48.112;9.282;2023-04-26T04:36:07;94633.38;;;6.44;81.08
9855;BME280;4966;48.112;9.282;2023-04-26T04:38:33;94643.22;;;6.40;81.81
9855;BME280;4966;48.112;9.282;2023-04-26T04:41:00;94646.22;;;6.38;81.80
9855;BME280;4966;48.112;9.282;2023-04-26T04:43:26;94656.88;;;6.44;81.93
9855;BME280;4966;48.112;9.282;2023-04-26T04:45:52;94655.28;;;6.43;82.92
9855;BME280;4966;48.112;9.282;2023-04-26T04:48:18;94649.00;;;6.65;82.77
9855;BME280;4966;48.112;9.282;2023-04-26T04:50:45;94647.81;;;6.97;82.31
9855;BME280;4966;48.112;9.282;2023-04-26T04:53:14;94652.13;;;7.07;81.97
9855;BME280;4966;48.112;9.282;2023-04-26T04:55:40;94647.19;;;7.09;81.85
9855;BME280;4966;48.112;9.282;2023-04-26T04:58:09;94659.91;;;7.08;82.10
9855;BME280;4966;48.112;9.282;2023-04-26T05:00:35;94653.41;;;7.27;81.91
9855;BME280;4966;48.112;9.282;2023-04-26T05:03:02;94652.44;;;7.22;81.78
9855;BME280;4966;48.112;9.282;2023-04-26T05:05:28;94663.13;;;7.19;81.57
9855;BME280;4966;48.112;9.282;2023-04-26T05:07:57;94656.44;;;7.25;81.24
9855;BME280;4966;48.112;9.282;2023-04-26T05:10:22;94659.31;;;7.29;80.65
9855;BME280;4966;48.112;9.282;2023-04-26T05:12:48;94668.88;;;7.26;80.21
9855;BME280;4966;48.112;9.282;2023-04-26T05:15:14;94663.28;;;7.31;78.67
9855;BME280;4966;48.112;9.282;2023-04-26T05:17:40;94670.63;;;7.39;78.17
9855;BME280;4966;48.112;9.282;2023-04-26T05:20:07;94668.09;;;7.43;78.42
9855;BME280;4966;48.112;9.282;2023-04-26T05:22:35;94673.00;;;7.58;78.23
9855;BME280;4966;48.112;9.282;2023-04-26T05:25:07;94671.25;;;7.80;76.52
9855;BME280;4966;48.112;9.282;2023-04-26T05:27:32;94675.22;;;7.82;77.46
9855;BME280;4966;48.112;9.282;2023-04-26T05:30:08;94676.81;;;8.01;76.28
9855;BME280;4966;48.112;9.282;2023-04-26T05:32:36;94687.94;;;7.99;74.61
9855;BME280;4966;48.112;9.282;2023-04-26T05:35:02;94688.16;;;7.85;73.89
9855;BME280;4966;48.112;9.282;2023-04-26T05:37:34;94689.41;;;7.88;74.14
9855;BME280;4966;48.112;9.282;2023-04-26T05:40:00;94685.75;;;7.75;73.60
9855;BME280;4966;48.112;9.282;2023-04-26T05:42:26;94693.06;;;8.01;73.84
9855;BME280;4966;48.112;9.282;2023-04-26T05:44:58;94687.75;;;8.22;73.99
9855;BME280;4966;48.112;9.282;2023-04-26T05:47:24;94692.53;;;8.34;73.38
9855;BME280;4966;48.112;9.282;2023-04-26T05:49:50;94691.75;;;8.24;72.43
9855;BME280;4966;48.112;9.282;2023-04-26T05:52:16;94697.28;;;8.28;71.74
9855;BME280;4966;48.112;9.282;2023-04-26T05:54:44;94700.34;;;8.26;72.02
9855;BME280;4966;48.112;9.282;2023-04-26T05:57:09;94701.94;;;8.27;71.43
9855;BME280;4966;48.112;9.282;2023-04-26T05:59:36;94705.09;;;8.47;71.53
9855;BME280;4966;48.112;9.282;2023-04-26T06:02:05;94701.91;;;8.45;73.18
9855;BME280;4966;48.112;9.282;2023-04-26T06:04:31;94695.75;;;8.74;71.54
9855;BME280;4966;48.112;9.282;2023-04-26T06:06:57;94696.97;;;8.85;70.89
9855;BME280;4966;48.112;9.282;2023-04-26T06:09:23;94695.31;;;9.02;71.45
9855;BME280;4966;48.112;9.282;2023-04-26T06:11:48;94695.09;;;9.07;70.99
9855;BME280;4966;48.112;9.282;2023-04-26T06:14:14;94698.28;;;9.09;70.88
9855;BME280;4966;48.112;9.282;2023-04-26T06:16:40;94697.72;;;8.94;69.52
9855;BME280;4966;48.112;9.282;2023-04-26T06:19:06;94702.38;;;8.94;67.96
9855;BME280;4966;48.112;9.282;2023-04-26T06:21:32;94700.25;;;9.00;67.60
9855;BME280;4966;48.112;9.282;2023-04-26T06:23:58;94699.09;;;9.09;65.42
9855;BME280;4966;48.112;9.282;2023-04-26T06:26:27;94695.59;;;9.09;64.57
9855;BME280;4966;48.112;9.282;2023-04-26T06:28:53;94699.38;;;9.16;63.62
9855;BME280;4966;48.112;9.282;2023-04-26T06:31:19;94697.75;;;9.45;63.45
9855;BME280;4966;48.112;9.282;2023-04-26T06:33:48;94689.78;;;8.89;63.49
9855;BME280;4966;48.112;9.282;2023-04-26T06:36:15;94696.44;;;9.01;63.56
9855;BME280;4966;48.112;9.282;2023-04-26T06:38:43;94696.94;;;9.24;60.82
9855;BME280;4966;48.112;9.282;2023-04-26T06:41:09;94696.22;;;9.35;60.10
9855;BME280;4966;48.112;9.282;2023-04-26T06:43:37;94695.44;;;9.35;63.44
9855;BME280;4966;48.112;9.282;2023-04-26T06:46:06;94701.47;;;9.11;63.90
9855;BME280;4966;48.112;9.282;2023-04-26T06:48:32;94698.88;;;9.14;61.98
9855;BME280;4966;48.112;9.282;2023-04-26T06:50:58;94707.81;;;9.45;57.95
9855;BME280;4966;48.112;9.282;2023-04-26T06:53:29;94704.06;;;9.58;56.23
9855;BME280;4966;48.112;9.282;2023-04-26T06:55:57;94706.03;;;9.49;60.47
9855;BME280;4966;48.112;9.282;2023-04-26T06:58:26;94707.31;;;9.22;58.84
9855;BME280;4966;48.112;9.282;2023-04-26T07:00:52;94709.69;;;9.53;58.46
9855;BME280;4966;48.112;9.282;2023-04-26T07:03:26;94709.94;;;10.02;58.77
9855;BME280;4966;48.112;9.282;2023-04-26T07:05:54;94694.94;;;10.17;55.19
9855;BME280;4966;48.112;9.282;2023-04-26T07:08:20;94699.16;;;10.27;54.75
9855;BME280;4966;48.112;9.282;2023-04-26T07:10:46;94701.03;;;10.14;53.98
9855;BME280;4966;48.112;9.282;2023-04-26T07:13:12;94705.50;;;10.52;56.39
9855;BME280;4966;48.112;9.282;2023-04-26T07:15:41;94699.41;;;10.92;55.88
9855;BME280;4966;48.112;9.282;2023-04-26T07:18:07;94698.06;;;11.10;54.44
9855;BME280;4966;48.112;9.282;2023-04-26T07:20:33;94693.28;;;11.19;51.85
9855;BME280;4966;48.112;9.282;2023-04-26T07:22:59;94695.69;;;11.21;50.41
9855;BME280;4966;48.112;9.282;2023-04-26T07:25:25;94695.56;;;11.17;50.57
9855;BME280;4966;48.112;9.282;2023-04-26T07:27:51;94700.47;;;10.99;50.75
9855;BME280;4966;48.112;9.282;2023-04-26T07:30:17;94692.28;;;10.87;51.24
9855;BME280;4966;48.112;9.282;2023-04-26T07:32:42;94685.28;;;10.40;53.54
9855;BME280;4966;48.112;9.282;2023-04-26T07:35:12;94690.69;;;10.28;53.04
9855;BME280;4966;48.112;9.282;2023-04-26T07:37:42;94692.47;;;10.57;53.14
9855;BME280;4966;48.112;9.282;2023-04-26T07:40:09;94680.91;;;10.60;53.69
9855;BME280;4966;48.112;9.282;2023-04-26T07:42:36;94683.59;;;10.48;56.20
9855;BME280;4966;48.112;9.282;2023-04-26T07:45:02;94678.50;;;10.47;57.16
9855;BME280;4966;48.112;9.282;2023-04-26T07:47:28;94683.66;;;10.85;55.08
9855;BME280;4966;48.112;9.282;2023-04-26T07:50:04;94684.22;;;11.03;52.23
9855;BME280;4966;48.112;9.282;2023-04-26T07:52:33;94676.63;;;11.21;53.72
9855;BME280;4966;48.112;9.282;2023-04-26T07:54:58;94671.22;;;11.61;54.49
9855;BME280;4966;48.112;9.282;2023-04-26T07:57:24;94672.38;;;12.01;50.10
9855;BME280;4966;48.112;9.282;2023-04-26T07:59:50;94675.53;;;12.31;48.94
9855;BME280;4966;48.112;9.282;2023-04-26T08:02:16;94676.84;;;12.21;49.83
9855;BME280;4966;48.112;9.282;2023-04-26T08:04:48;94673.16;;;11.48;52.38
9855;BME280;4966;48.112;9.282;2023-04-26T08:07:17;94672.63;;;10.45;53.76
9855;BME280;4966;48.112;9.282;2023-04-26T08:09:43;94679.69;;;11.19;53.47
9855;BME280;4966;48.112;9.282;2023-04-26T08:12:10;94681.00;;;10.52;52.99
9855;BME280;4966;48.112;9.282;2023-04-26T08:14:37;94680.16;;;11.09;53.16
9855;BME280;4966;48.112;9.282;2023-04-26T08:17:04;94665.47;;;11.38;51.67
9855;BME280;4966;48.112;9.282;2023-04-26T08:19:30;94680.25;;;11.25;49.75
9855;BME280;4966;48.112;9.282;2023-04-26T08:21:57;94673.78;;;11.17;51.55
9855;BME280;4966;48.112;9.282;2023-04-26T08:24:24;94673.53;;;11.22;52.14
9855;BME280;4966;48.112;9.282;2023-04-26T08:26:49;94674.91;;;10.79;51.56
9855;BME280;4966;48.112;9.282;2023-04-26T08:29:18;94663.91;;;11.25;51.96
9855;BME280;4966;48.112;9.282;2023-04-26T08:31:44;94670.31;;;11.57;51.57
9855;BME280;4966;48.112;9.282;2023-04-26T08:34:12;94673.50;;;11.59;48.49
9855;BME280;4966;48.112;9.282;2023-04-26T08:36:41;94673.47;;;12.12;47.11
9855;BME280;4966;48.112;9.282;2023-04-26T08:39:07;94673.91;;;11.74;44.99
9855;BME280;4966;48.112;9.282;2023-04-26T08:41:37;94669.41;;;12.06;45.96
9855;BME280;4966;48.112;9.282;2023-04-26T08:44:07;94670.31;;;12.86;44.45
9855;BME280;4966;48.112;9.282;2023-04-26T08:46:39;94677.50;;;12.46;44.94
9855;BME280;4966;48.112;9.282;2023-04-26T08:49:36;94676.00;;;12.49;43.95
9855;BME280;4966;48.112;9.282;2023-04-26T08:52:08;94671.72;;;13.27;43.02
9855;BME280;4966;48.112;9.282;2023-04-26T08:54:36;94673.84;;;13.34;43.16
9855;BME280;4966;48.112;9.282;2023-04-26T08:57:02;94680.59;;;13.24;44.44
9855;BME280;4966;48.112;9.282;2023-04-26T08:59:29;94684.13;;;12.61;44.99
9855;BME280;4966;48.112;9.282;2023-04-26T09:01:56;94674.31;;;12.44;45.25
9855;BME280;4966;48.112;9.282;2023-04-26T09:04:22;94677.94;;;12.48;45.10
9855;BME280;4966;48.112;9.282;2023-04-26T09:06:49;94681.41;;;11.77;46.91
9855;BME280;4966;48.112;9.282;2023-04-26T09:09:17;94676.94;;;12.25;46.25
9855;BME280;4966;48.112;9.282;2023-04-26T09:11:58;94675.94;;;12.17;46.41
9855;BME280;4966;48.112;9.282;2023-04-26T09:14:24;94684.72;;;12.54;44.94
9855;BME280;4966;48.112;9.282;2023-04-26T09:16:56;94686.03;;;12.45;45.41
9855;BME280;4966;48.112;9.282;2023-04-26T09:19:40;94681.72;;;12.44;45.79
9855;BME280;4966;48.112;9.282;2023-04-26T09:22:09;94674.38;;;12.32;46.09
9855;BME280;4966;48.112;9.282;2023-04-26T09:24:50;94683.81;;;12.06;45.99
9855;BME280;4966;48.112;9.282;2023-04-26T09:27:19;94678.50;;;12.86;45.07
9855;BME280;4966;48.112;9.282;2023-04-26T09:30:06;94676.88;;;13.48;44.04
9855;BME280;4966;48.112;9.282;2023-04-26T09:35:22;94670.31;;;12.70;45.04
9855;BME280;4966;48.112;9.282;2023-04-26T09:37:57;94662.53;;;13.71;44.25
9855;BME280;4966;48.112;9.282;2023-04-26T09:40:30;94655.19;;;14.14;42.33
9855;BME280;4966;48.112;9.282;2023-04-26T09:42:58;94660.59;;;14.72;41.49
9855;BME280;4966;48.112;9.282;2023-04-26T09:45:26;94663.03;;;15.00;38.97
9855;BME280;4966;48.112;9.282;2023-04-26T09:47:56;94663.31;;;14.10;39.51
9855;BME280;4966;48.112;9.282;2023-04-26T09:50:37;94666.28;;;14.01;38.86
9855;BME280;4966;48.112;9.282;2023-04-26T09:53:03;94664.25;;;13.79;39.80
9855;BME280;4966;48.112;9.282;2023-04-26T09:55:30;94658.13;;;14.24;39.61
9855;BME280;4966;48.112;9.282;2023-04-26T09:57:56;94656.78;;;14.34;38.46
9855;BME280;4966;48.112;9.282;2023-04-26T10:00:23;94659.69;;;14.45;38.30
9855;BME280;4966;48.112;9.282;2023-04-26T10:02:52;94654.22;;;14.45;39.30
9855;BME280;4966;48.112;9.282;2023-04-26T10:05:19;94653.81;;;14.89;39.91
9855;BME280;4966;48.112;9.282;2023-04-26T10:07:48;94654.25;;;14.91;39.23
9855;BME280;4966;48.112;9.282;2023-04-26T10:10:15;94654.50;;;15.05;38.62
9855;BME280;4966;48.112;9.282;2023-04-26T10:12:44;94657.31;;;14.86;40.08
9855;BME280;4966;48.112;9.282;2023-04-26T10:15:10;94650.44;;;15.22;37.53
9855;BME280;4966;48.112;9.282;2023-04-26T10:17:37;94653.19;;;15.49;36.98
9855;BME280;4966;48.112;9.282;2023-04-26T10:20:05;94646.25;;;15.55;36.97
9855;BME280;4966;48.112;9.282;2023-04-26T10:22:42;94650.25;;;15.35;38.03
9855;BME280;4966;48.112;9.282;2023-04-26T10:25:09;94644.25;;;15.52;39.65
9855;BME280;4966;48.112;9.282;2023-04-26T10:27:47;94647.25;;;15.43;37.26
9855;BME280;4966;48.112;9.282;2023-04-26T10:30:16;94644.81;;;15.65;38.50
9855;BME280;4966;48.112;9.282;2023-04-26T10:35:24;94641.69;;;16.30;38.33
9855;BME280;4966;48.112;9.282;2023-04-26T10:40:40;94636.88;;;16.16;39.78
9855;BME280;4966;48.112;9.282;2023-04-26T10:45:46;94643.38;;;16.05;39.66
9855;BME280;4966;48.112;9.282;2023-04-26T10:48:28;94632.34;;;16.35;37.86
9855;BME280;4966;48.112;9.282;2023-04-26T10:59:12;94623.13;;;16.54;38.41
9855;BME280;4966;48.112;9.282;2023-04-26T11:01:43;94632.69;;;16.71;37.71
9855;BME280;4966;48.112;9.282;2023-04-26T11:04:11;94624.13;;;17.17;36.57
9855;BME280;4966;48.112;9.282;2023-04-26T11:06:50;94628.44;;;16.36;40.36
9855;BME280;4966;48.112;9.282;2023-04-26T11:09:55;94617.25;;;17.48;36.84
9855;BME280;4966;48.112;9.282;2023-04-26T11:12:25;94617.84;;;17.86;37.59
9855;BME280;4966;48.112;9.282;2023-04-26T11:14:52;94617.53;;;17.98;35.75
9855;BME280;4966;48.112;9.282;2023-04-26T11:17:19;94621.38;;;17.20;36.54
9855;BME280;4966;48.112;9.282;2023-04-26T11:19:45;94615.84;;;16.72;39.51
9855;BME280;4966;48.112;9.282;2023-04-26T11:22:12;94611.63;;;16.78;35.98
9855;BME280;4966;48.112;9.282;2023-04-26T11:24:37;94616.09;;;18.37;33.98
9855;BME280;4966;48.112;9.282;2023-04-26T11:27:10;94609.78;;;18.43;32.41
9855;BME280;4966;48.112;9.282;2023-04-26T11:29:38;94606.31;;;20.64;30.95
9855;BME280;4966;48.112;9.282;2023-04-26T11:32:04;94602.38;;;20.61;30.93
9855;BME280;4966;48.112;9.282;2023-04-26T11:34:33;94603.03;;;20.06;30.24
9855;BME280;4966;48.112;9.282;2023-04-26T11:37:01;94609.06;;;19.61;30.46
9855;BME280;4966;48.112;9.282;2023-04-26T11:39:27;94590.56;;;20.53;29.54
9855;BME280;4966;48.112;9.282;2023-04-26T11:42:05;94595.03;;;20.29;28.68
9855;BME280;4966;48.112;9.282;2023-04-26T11:44:32;94596.78;;;19.84;30.04
9855;BME280;4966;48.112;9.282;2023-04-26T11:47:00;94594.84;;;19.66;30.48
9855;BME280;4966;48.112;9.282;2023-04-26T11:49:35;94601.28;;;21.03;29.94
9855;BME280;4966;48.112;9.282;2023-04-26T11:52:02;94607.06;;;20.68;31.08
9855;BME280;4966;48.112;9.282;2023-04-26T11:54:30;94603.00;;;20.16;30.11
9855;BME280;4966;48.112;9.282;2023-04-26T11:57:15;94597.63;;;18.44;33.84
9855;BME280;4966;48.112;9.282;2023-04-26T11:59:41;94600.78;;;18.64;31.82
9855;BME280;4966;48.112;9.282;2023-04-26T12:02:08;94594.41;;;18.17;32.30
9855;BME280;4966;48.112;9.282;2023-04-26T12:04:36;94599.06;;;18.02;32.71
9855;BME280;4966;48.112;9.282;2023-04-26T12:07:06;94600.00;;;18.71;33.32
9855;BME280;4966;48.112;9.282;2023-04-26T12:09:33;94586.94;;;18.25;34.18
9855;BME280;4966;48.112;9.282;2023-04-26T12:11:59;94579.97;;;19.06;31.47
9855;BME280;4966;48.112;9.282;2023-04-26T12:14:37;94589.00;;;19.43;32.28
9855;BME280;4966;48.112;9.282;2023-04-26T12:17:03;94589.69;;;19.86;32.64
9855;BME280;4966;48.112;9.282;2023-04-26T12:19:38;94576.00;;;21.01;27.56
9855;BME280;4966;48.112;9.282;2023-04-26T12:22:05;94574.09;;;20.32;29.14
9855;BME280;4966;48.112;9.282;2023-04-26T12:24:34;94577.91;;;21.12;28.19
9855;BME280;4966;48.112;9.282;2023-04-26T12:27:03;94576.66;;;21.61;27.04
9855;BME280;4966;48.112;9.282;2023-04-26T12:29:31;94578.28;;;21.59;25.98
9855;BME280;4966;48.112;9.282;2023-04-26T12:32:00;94574.38;;;21.91;26.94
9855;BME280;4966;48.112;9.282;2023-04-26T12:34:26;94575.75;;;20.85;28.85
9855;BME280;4966;48.112;9.282;2023-04-26T12:36:55;94572.16;;;21.33;26.32
9855;BME280;4966;48.112;9.282;2023-04-26T12:39:26;94572.59;;;21.73;26.21
9855;BME280;4966;48.112;9.282;2023-04-26T12:41:51;94577.63;;;18.94;30.41
9855;BME280;4966;48.112;9.282;2023-04-26T12:44:17;94577.13;;;18.31;31.56
9855;BME280;4966;48.112;9.282;2023-04-26T12:46:43;94570.84;;;18.38;30.76
9855;BME280;4966;48.112;9.282;2023-04-26T12:49:09;94561.34;;;19.68;29.65
9855;BME280;4966;48.112;9.282;2023-04-26T12:51:37;94564.88;;;21.92;26.29
9855;BME280;4966;48.112;9.282;2023-04-26T12:54:03;94559.19;;;20.81;27.61
9855;BME280;4966;48.112;9.282;2023-04-26T12:56:32;94562.91;;;19.76;28.91
9855;BME280;4966;48.112;9.282;2023-04-26T12:58:58;94567.53;;;17.85;33.60
9855;BME280;4966;48.112;9.282;2023-04-26T13:01:24;94563.75;;;19.48;29.22
9855;BME280;4966;48.112;9.282;2023-04-26T13:03:51;94570.13;;;19.02;29.97
9855;BME280;4966;48.112;9.282;2023-04-26T13:06:17;94557.84;;;18.20;30.03
9855;BME280;4966;48.112;9.282;2023-04-26T13:08:42;94549.94;;;19.73;28.11
9855;BME280;4966;48.112;9.282;2023-04-26T13:11:08;94551.75;;;17.79;30.74
9855;BME280;4966;48.112;9.282;2023-04-26T13:13:34;94558.31;;;19.23;28.99
9855;BME280;4966;48.112;9.282;2023-04-26T13:16:03;94548.34;;;19.75;27.82
9855;BME280;4966;48.112;9.282;2023-04-26T13:18:29;94554.59;;;19.90;27.20
9855;BME280;4966;48.112;9.282;2023-04-26T13:20:55;94565.69;;;20.53;26.94
9855;BME280;4966;48.112;9.282;2023-04-26T13:23:24;94548.16;;;21.27;26.96
9855;BME280;4966;48.112;9.282;2023-04-26T13:25:50;94552.59;;;21.13;26.83
9855;BME280;4966;48.112;9.282;2023-04-26T13:28:16;94553.13;;;20.42;26.83
9855;BME280;4966;48.112;9.282;2023-04-26T13:30:42;94558.00;;;20.19;28.24
9855;BME280;4966;48.112;9.282;2023-04-26T13:33:07;94550.75;;;20.47;28.46
9855;BME280;4966;48.112;9.282;2023-04-26T13:35:33;94549.31;;;20.84;26.73
9855;BME280;4966;48.112;9.282;2023-04-26T13:37:59;94551.84;;;19.83;28.87
9855;BME280;4966;48.112;9.282;2023-04-26T13:40:25;94540.97;;;20.28;28.35
9855;BME280;4966;48.112;9.282;2023-04-26T13:42:54;94547.63;;;21.39;26.46
9855;BME280;4966;48.112;9.282;2023-04-26T13:45:20;94539.97;;;23.27;24.37
9855;BME280;4966;48.112;9.282;2023-04-26T13:47:46;94546.44;;;23.21;24.72
9855;BME280;4966;48.112;9.282;2023-04-26T13:50:15;94542.94;;;22.04;27.21